sensor_id;sensor_type;location;lat;lon;timestamp;P1;durP1;ratioP1;P2;durP2;ratioP2
22080;SDS011;11207;59.512;18.050;2023-12-29T00:00:33;3.83;;;3.43;;
22080;SDS011;11207;59.512;18.050;2023-12-29T00:02:59;3.80;;;3.50;;
22080;SDS011;11207;59.512;18.050;2023-12-29T00:05:24;3.67;;;3.37;;
22080;SDS011;11207;59.512;18.050;2023-12-29T00:07:50;3.53;;;3.23;;
22080;SDS011;11207;59.512;18.050;2023-12-29T00:10:16;3.73;;;3.43;;
22080;SDS011;11207;59.512;18.050;2023-12-29T00:12:41;4.13;;;3.20;;
22080;SDS011;11207;59.512;18.050;2023-12-29T00:15:07;3.90;;;3.60;;
22080;SDS011;11207;59.512;18.050;2023-12-29T00:17:33;3.73;;;3.43;;
22080;SDS011;11207;59.512;18.050;2023-12-29T00:20:03;3.80;;;3.50;;
22080;SDS011;11207;59.512;18.050;2023-12-29T00:22:29;3.50;;;3.20;;
22080;SDS011;11207;59.512;18.050;2023-12-29T00:24:55;3.73;;;3.43;;
22080;SDS011;11207;59.512;18.050;2023-12-29T00:27:20;3.83;;;3.43;;
22080;SDS011;11207;59.512;18.050;2023-12-29T00:29:46;4.10;;;3.67;;
22080;SDS011;11207;59.512;18.050;2023-12-29T00:32:11;3.50;;;3.30;;
22080;SDS011;11207;59.512;18.050;2023-12-29T00:34:37;3.87;;;3.57;;
22080;SDS011;11207;59.512;18.050;2023-12-29T00:37:03;4.20;;;3.80;;
22080;SDS011;11207;59.512;18.050;2023-12-29T00:39:28;5.00;;;3.90;;
22080;SDS011;11207;59.512;18.050;2023-12-29T00:41:56;4.30;;;3.90;;
22080;SDS011;11207;59.512;18.050;2023-12-29T00:44:22;4.57;;;3.60;;
22080;SDS011;11207;59.512;18.050;2023-12-29T00:46:48;4.27;;;3.93;;
22080;SDS011;11207;59.512;18.050;2023-12-29T00:49:14;3.90;;;3.50;;
22080;SDS011;11207;59.512;18.050;2023-12-29T00:51:40;3.80;;;3.50;;
22080;SDS011;11207;59.512;18.050;2023-12-29T00:54:08;3.80;;;3.50;;
22080;SDS011;11207;59.512;18.050;2023-12-29T00:56:34;3.43;;;3.20;;
22080;SDS011;11207;59.512;18.050;2023-12-29T00:58:59;3.63;;;3.33;;
22080;SDS011;11207;59.512;18.050;2023-12-29T01:01:25;3.67;;;3.37;;
22080;SDS011;11207;59.512;18.050;2023-12-29T01:03:50;4.57;;;3.60;;
22080;SDS011;11207;59.512;18.050;2023-12-29T01:06:19;4.13;;;3.77;;
22080;SDS011;11207;59.512;18.050;2023-12-29T01:08:45;4.13;;;3.73;;
22080;SDS011;11207;59.512;18.050;2023-12-29T01:11:11;4.10;;;3.80;;
22080;SDS011;11207;59.512;18.050;2023-12-29T01:13:36;4.30;;;3.33;;
22080;SDS011;11207;59.512;18.050;2023-12-29T01:16:02;3.60;;;3.37;;
22080;SDS011;11207;59.512;18.050;2023-12-29T01:18:28;3.40;;;3.10;;
22080;SDS011;11207;59.512;18.050;2023-12-29T01:20:53;4.20;;;3.43;;
22080;SDS011;11207;59.512;18.050;2023-12-29T01:23:19;3.90;;;3.43;;
22080;SDS011;11207;59.512;18.050;2023-12-29T01:25:45;5.53;;;3.60;;
22080;SDS011;11207;59.512;18.050;2023-12-29T01:28:11;4.23;;;3.27;;
22080;SDS011;11207;59.512;18.050;2023-12-29T01:30:36;3.50;;;3.20;;
22080;SDS011;11207;59.512;18.050;2023-12-29T01:33:02;3.40;;;3.20;;
22080;SDS011;11207;59.512;18.050;2023-12-29T01:35:27;3.37;;;3.07;;
22080;SDS011;11207;59.512;18.050;2023-12-29T01:37:53;3.40;;;3.20;;
22080;SDS011;11207;59.512;18.050;2023-12-29T01:40:21;3.00;;;2.80;;
22080;SDS011;11207;59.512;18.050;2023-12-29T01:42:47;3.00;;;2.80;;
22080;SDS011;11207;59.512;18.050;2023-12-29T01:45:22;3.10;;;2.90;;
22080;SDS011;11207;59.512;18.050;2023-12-29T01:47:51;2.97;;;2.70;;
22080;SDS011;11207;59.512;18.050;2023-12-29T01:50:17;3.43;;;3.23;;
22080;SDS011;11207;59.512;18.050;2023-12-29T01:52:45;3.07;;;2.90;;
22080;SDS011;11207;59.512;18.050;2023-12-29T01:55:14;3.17;;;2.97;;
22080;SDS011;11207;59.512;18.050;2023-12-29T01:57:42;3.10;;;2.80;;
22080;SDS011;11207;59.512;18.050;2023-12-29T02:00:08;3.20;;;3.00;;
22080;SDS011;11207;59.512;18.050;2023-12-29T02:02:36;3.00;;;2.70;;
22080;SDS011;11207;59.512;18.050;2023-12-29T02:05:01;2.97;;;2.67;;
22080;SDS011;11207;59.512;18.050;2023-12-29T02:07:27;2.70;;;2.60;;
22080;SDS011;11207;59.512;18.050;2023-12-29T02:09:56;2.70;;;2.50;;
22080;SDS011;11207;59.512;18.050;2023-12-29T02:12:25;3.40;;;3.10;;
22080;SDS011;11207;59.512;18.050;2023-12-29T02:14:51;3.37;;;3.07;;
22080;SDS011;11207;59.512;18.050;2023-12-29T02:17:24;3.50;;;2.93;;
22080;SDS011;11207;59.512;18.050;2023-12-29T02:20:00;3.03;;;2.80;;
22080;SDS011;11207;59.512;18.050;2023-12-29T02:22:27;3.00;;;2.80;;
22080;SDS011;11207;59.512;18.050;2023-12-29T02:24:52;3.27;;;3.07;;
22080;SDS011;11207;59.512;18.050;2023-12-29T02:33:16;3.23;;;2.93;;
22080;SDS011;11207;59.512;18.050;2023-12-29T02:35:45;3.50;;;3.20;;
22080;SDS011;11207;59.512;18.050;2023-12-29T02:38:14;3.50;;;3.20;;
22080;SDS011;11207;59.512;18.050;2023-12-29T02:40:40;3.30;;;3.10;;
22080;SDS011;11207;59.512;18.050;2023-12-29T02:43:08;3.17;;;2.97;;
22080;SDS011;11207;59.512;18.050;2023-12-29T02:45:34;5.07;;;3.47;;
22080;SDS011;11207;59.512;18.050;2023-12-29T02:47:59;4.23;;;3.00;;
22080;SDS011;11207;59.512;18.050;2023-12-29T02:50:25;3.40;;;3.10;;
22080;SDS011;11207;59.512;18.050;2023-12-29T02:52:51;4.57;;;3.37;;
22080;SDS011;11207;59.512;18.050;2023-12-29T02:55:16;3.63;;;3.33;;
22080;SDS011;11207;59.512;18.050;2023-12-29T02:57:42;3.70;;;3.40;;
22080;SDS011;11207;59.512;18.050;2023-12-29T03:00:08;3.53;;;3.13;;
22080;SDS011;11207;59.512;18.050;2023-12-29T03:02:34;3.77;;;3.40;;
22080;SDS011;11207;59.512;18.050;2023-12-29T03:04:59;3.67;;;3.37;;
22080;SDS011;11207;59.512;18.050;2023-12-29T03:07:25;3.50;;;3.20;;
22080;SDS011;11207;59.512;18.050;2023-12-29T03:09:51;3.60;;;3.30;;
22080;SDS011;11207;59.512;18.050;2023-12-29T03:12:17;3.90;;;3.60;;
22080;SDS011;11207;59.512;18.050;2023-12-29T03:14:43;6.43;;;4.00;;
22080;SDS011;11207;59.512;18.050;2023-12-29T03:17:09;3.87;;;3.43;;
22080;SDS011;11207;59.512;18.050;2023-12-29T03:19:35;3.67;;;3.37;;
22080;SDS011;11207;59.512;18.050;2023-12-29T03:22:01;5.40;;;3.90;;
22080;SDS011;11207;59.512;18.050;2023-12-29T03:24:27;4.40;;;4.00;;
22080;SDS011;11207;59.512;18.050;2023-12-29T03:26:54;3.90;;;3.60;;
22080;SDS011;11207;59.512;18.050;2023-12-29T03:29:19;5.00;;;4.50;;
22080;SDS011;11207;59.512;18.050;2023-12-29T03:31:45;5.00;;;4.50;;
22080;SDS011;11207;59.512;18.050;2023-12-29T03:34:11;6.20;;;4.33;;
22080;SDS011;11207;59.512;18.050;2023-12-29T03:36:36;5.70;;;5.07;;
22080;SDS011;11207;59.512;18.050;2023-12-29T03:39:02;8.03;;;4.60;;
22080;SDS011;11207;59.512;18.050;2023-12-29T03:41:28;4.57;;;4.17;;
22080;SDS011;11207;59.512;18.050;2023-12-29T03:43:54;5.83;;;4.13;;
22080;SDS011;11207;59.512;18.050;2023-12-29T03:46:21;5.27;;;4.73;;
22080;SDS011;11207;59.512;18.050;2023-12-29T03:48:47;8.37;;;4.80;;
22080;SDS011;11207;59.512;18.050;2023-12-29T03:51:13;6.90;;;5.07;;
22080;SDS011;11207;59.512;18.050;2023-12-29T03:53:40;5.63;;;4.83;;
22080;SDS011;11207;59.512;18.050;2023-12-29T03:56:12;5.57;;;5.00;;
22080;SDS011;11207;59.512;18.050;2023-12-29T03:58:39;7.07;;;5.50;;
22080;SDS011;11207;59.512;18.050;2023-12-29T04:01:09;5.47;;;4.97;;
22080;SDS011;11207;59.512;18.050;2023-12-29T04:03:36;7.60;;;5.17;;
22080;SDS011;11207;59.512;18.050;2023-12-29T04:06:01;6.63;;;5.30;;
22080;SDS011;11207;59.512;18.050;2023-12-29T04:08:27;6.10;;;5.00;;
22080;SDS011;11207;59.512;18.050;2023-12-29T04:10:53;5.03;;;4.53;;
22080;SDS011;11207;59.512;18.050;2023-12-29T04:13:18;5.70;;;4.90;;
22080;SDS011;11207;59.512;18.050;2023-12-29T04:15:44;7.40;;;4.33;;
22080;SDS011;11207;59.512;18.050;2023-12-29T04:18:09;4.40;;;4.10;;
22080;SDS011;11207;59.512;18.050;2023-12-29T04:20:35;4.80;;;4.40;;
22080;SDS011;11207;59.512;18.050;2023-12-29T04:23:00;4.40;;;4.00;;
22080;SDS011;11207;59.512;18.050;2023-12-29T04:25:26;4.40;;;4.00;;
22080;SDS011;11207;59.512;18.050;2023-12-29T04:27:52;4.30;;;3.90;;
22080;SDS011;11207;59.512;18.050;2023-12-29T04:30:17;9.70;;;4.40;;
22080;SDS011;11207;59.512;18.050;2023-12-29T04:32:43;4.00;;;3.70;;
22080;SDS011;11207;59.512;18.050;2023-12-29T04:35:08;4.20;;;3.90;;
22080;SDS011;11207;59.512;18.050;2023-12-29T04:37:37;4.20;;;3.80;;
22080;SDS011;11207;59.512;18.050;2023-12-29T04:40:03;4.30;;;3.90;;
22080;SDS011;11207;59.512;18.050;2023-12-29T04:42:30;3.30;;;3.10;;
22080;SDS011;11207;59.512;18.050;2023-12-29T04:44:55;3.00;;;2.80;;
22080;SDS011;11207;59.512;18.050;2023-12-29T04:47:21;3.17;;;2.97;;
22080;SDS011;11207;59.512;18.050;2023-12-29T04:49:47;3.40;;;3.17;;
22080;SDS011;11207;59.512;18.050;2023-12-29T04:52:12;3.37;;;3.07;;
22080;SDS011;11207;59.512;18.050;2023-12-29T04:54:38;3.10;;;2.90;;
22080;SDS011;11207;59.512;18.050;2023-12-29T04:57:03;3.10;;;2.90;;
22080;SDS011;11207;59.512;18.050;2023-12-29T04:59:29;3.27;;;2.97;;
22080;SDS011;11207;59.512;18.050;2023-12-29T05:01:55;3.23;;;3.03;;
22080;SDS011;11207;59.512;18.050;2023-12-29T05:04:20;2.83;;;2.63;;
22080;SDS011;11207;59.512;18.050;2023-12-29T05:06:46;2.83;;;2.63;;
22080;SDS011;11207;59.512;18.050;2023-12-29T05:09:12;2.80;;;2.60;;
22080;SDS011;11207;59.512;18.050;2023-12-29T05:11:38;3.07;;;2.87;;
22080;SDS011;11207;59.512;18.050;2023-12-29T05:14:04;2.90;;;2.70;;
22080;SDS011;11207;59.512;18.050;2023-12-29T05:16:30;2.73;;;2.60;;
22080;SDS011;11207;59.512;18.050;2023-12-29T05:18:55;2.80;;;2.60;;
22080;SDS011;11207;59.512;18.050;2023-12-29T05:21:21;2.87;;;2.67;;
22080;SDS011;11207;59.512;18.050;2023-12-29T05:23:47;2.47;;;2.37;;
22080;SDS011;11207;59.512;18.050;2023-12-29T05:26:13;2.50;;;2.30;;
22080;SDS011;11207;59.512;18.050;2023-12-29T05:28:39;2.50;;;2.40;;
22080;SDS011;11207;59.512;18.050;2023-12-29T05:31:05;2.30;;;2.20;;
22080;SDS011;11207;59.512;18.050;2023-12-29T05:33:34;2.23;;;2.13;;
22080;SDS011;11207;59.512;18.050;2023-12-29T05:36:05;2.30;;;2.20;;
22080;SDS011;11207;59.512;18.050;2023-12-29T05:38:34;2.27;;;2.17;;
22080;SDS011;11207;59.512;18.050;2023-12-29T05:41:04;2.40;;;2.30;;
22080;SDS011;11207;59.512;18.050;2023-12-29T05:43:33;2.70;;;2.10;;
22080;SDS011;11207;59.512;18.050;2023-12-29T05:45:59;2.13;;;2.03;;
22080;SDS011;11207;59.512;18.050;2023-12-29T05:48:26;2.20;;;2.10;;
22080;SDS011;11207;59.512;18.050;2023-12-29T05:50:52;2.40;;;2.30;;
22080;SDS011;11207;59.512;18.050;2023-12-29T05:53:18;2.30;;;2.20;;
22080;SDS011;11207;59.512;18.050;2023-12-29T05:55:44;2.40;;;2.30;;
22080;SDS011;11207;59.512;18.050;2023-12-29T05:58:10;2.20;;;2.10;;
22080;SDS011;11207;59.512;18.050;2023-12-29T06:00:36;2.10;;;2.00;;
22080;SDS011;11207;59.512;18.050;2023-12-29T06:03:02;2.10;;;2.00;;
22080;SDS011;11207;59.512;18.050;2023-12-29T06:05:29;2.40;;;2.17;;
22080;SDS011;11207;59.512;18.050;2023-12-29T06:07:55;2.13;;;2.03;;
22080;SDS011;11207;59.512;18.050;2023-12-29T06:10:21;2.10;;;2.00;;
22080;SDS011;11207;59.512;18.050;2023-12-29T06:12:47;2.70;;;2.37;;
22080;SDS011;11207;59.512;18.050;2023-12-29T06:15:12;2.10;;;2.00;;
22080;SDS011;11207;59.512;18.050;2023-12-29T06:17:39;2.20;;;2.10;;
22080;SDS011;11207;59.512;18.050;2023-12-29T06:20:06;2.03;;;1.93;;
22080;SDS011;11207;59.512;18.050;2023-12-29T06:22:32;2.20;;;2.10;;
22080;SDS011;11207;59.512;18.050;2023-12-29T06:25:04;2.40;;;2.30;;
22080;SDS011;11207;59.512;18.050;2023-12-29T06:27:30;2.10;;;2.00;;
22080;SDS011;11207;59.512;18.050;2023-12-29T06:29:57;2.20;;;2.00;;
22080;SDS011;11207;59.512;18.050;2023-12-29T06:32:22;1.90;;;1.90;;
22080;SDS011;11207;59.512;18.050;2023-12-29T06:34:48;1.97;;;1.90;;
22080;SDS011;11207;59.512;18.050;2023-12-29T06:37:14;2.30;;;2.20;;
22080;SDS011;11207;59.512;18.050;2023-12-29T06:39:39;2.13;;;2.03;;
22080;SDS011;11207;59.512;18.050;2023-12-29T06:42:05;2.10;;;2.00;;
22080;SDS011;11207;59.512;18.050;2023-12-29T06:44:30;2.10;;;2.00;;
22080;SDS011;11207;59.512;18.050;2023-12-29T06:46:56;2.30;;;2.20;;
22080;SDS011;11207;59.512;18.050;2023-12-29T06:49:22;2.30;;;2.20;;
22080;SDS011;11207;59.512;18.050;2023-12-29T06:51:47;2.40;;;2.30;;
22080;SDS011;11207;59.512;18.050;2023-12-29T06:54:13;2.20;;;2.10;;
22080;SDS011;11207;59.512;18.050;2023-12-29T06:56:39;2.10;;;2.00;;
22080;SDS011;11207;59.512;18.050;2023-12-29T06:59:04;2.10;;;2.00;;
22080;SDS011;11207;59.512;18.050;2023-12-29T07:01:31;2.30;;;2.20;;
22080;SDS011;11207;59.512;18.050;2023-12-29T07:03:56;2.43;;;2.33;;
22080;SDS011;11207;59.512;18.050;2023-12-29T07:06:22;2.30;;;2.20;;
22080;SDS011;11207;59.512;18.050;2023-12-29T07:08:47;6.30;;;4.53;;
22080;SDS011;11207;59.512;18.050;2023-12-29T07:11:13;11.80;;;7.93;;
22080;SDS011;11207;59.512;18.050;2023-12-29T07:13:39;4.53;;;3.60;;
22080;SDS011;11207;59.512;18.050;2023-12-29T07:16:04;2.77;;;2.57;;
22080;SDS011;11207;59.512;18.050;2023-12-29T07:18:30;2.63;;;2.43;;
22080;SDS011;11207;59.512;18.050;2023-12-29T07:20:56;2.40;;;2.30;;
22080;SDS011;11207;59.512;18.050;2023-12-29T07:23:21;2.20;;;2.10;;
22080;SDS011;11207;59.512;18.050;2023-12-29T07:25:47;2.60;;;2.40;;
22080;SDS011;11207;59.512;18.050;2023-12-29T07:28:13;22.60;;;9.80;;
22080;SDS011;11207;59.512;18.050;2023-12-29T07:30:39;19.40;;;9.70;;
22080;SDS011;11207;59.512;18.050;2023-12-29T07:33:05;17.97;;;9.27;;
22080;SDS011;11207;59.512;18.050;2023-12-29T07:35:30;10.23;;;6.60;;
22080;SDS011;11207;59.512;18.050;2023-12-29T07:37:57;4.40;;;3.50;;
22080;SDS011;11207;59.512;18.050;2023-12-29T07:40:22;3.70;;;3.23;;
22080;SDS011;11207;59.512;18.050;2023-12-29T07:42:48;3.87;;;3.47;;
22080;SDS011;11207;59.512;18.050;2023-12-29T07:45:15;6.03;;;4.07;;
22080;SDS011;11207;59.512;18.050;2023-12-29T07:47:41;5.50;;;4.03;;
22080;SDS011;11207;59.512;18.050;2023-12-29T07:50:08;4.33;;;3.43;;
22080;SDS011;11207;59.512;18.050;2023-12-29T07:52:34;7.07;;;3.73;;
22080;SDS011;11207;59.512;18.050;2023-12-29T07:54:59;4.47;;;3.70;;
22080;SDS011;11207;59.512;18.050;2023-12-29T07:57:25;4.03;;;3.63;;
22080;SDS011;11207;59.512;18.050;2023-12-29T07:59:51;5.30;;;3.50;;
22080;SDS011;11207;59.512;18.050;2023-12-29T08:02:16;3.50;;;3.20;;
22080;SDS011;11207;59.512;18.050;2023-12-29T08:04:42;4.90;;;3.90;;
22080;SDS011;11207;59.512;18.050;2023-12-29T08:07:07;5.07;;;3.70;;
22080;SDS011;11207;59.512;18.050;2023-12-29T08:09:35;4.60;;;3.47;;
22080;SDS011;11207;59.512;18.050;2023-12-29T08:12:00;5.37;;;3.83;;
22080;SDS011;11207;59.512;18.050;2023-12-29T08:14:26;4.87;;;3.93;;
22080;SDS011;11207;59.512;18.050;2023-12-29T08:16:51;5.03;;;4.33;;
22080;SDS011;11207;59.512;18.050;2023-12-29T08:19:17;4.23;;;3.73;;
22080;SDS011;11207;59.512;18.050;2023-12-29T08:21:43;3.73;;;3.43;;
22080;SDS011;11207;59.512;18.050;2023-12-29T08:24:08;5.57;;;4.40;;
22080;SDS011;11207;59.512;18.050;2023-12-29T08:26:34;4.87;;;4.20;;
22080;SDS011;11207;59.512;18.050;2023-12-29T08:28:59;6.23;;;4.83;;
22080;SDS011;11207;59.512;18.050;2023-12-29T08:31:25;4.10;;;3.70;;
22080;SDS011;11207;59.512;18.050;2023-12-29T08:33:53;5.03;;;3.70;;
22080;SDS011;11207;59.512;18.050;2023-12-29T08:36:20;3.90;;;3.60;;
22080;SDS011;11207;59.512;18.050;2023-12-29T08:38:46;4.17;;;3.80;;
22080;SDS011;11207;59.512;18.050;2023-12-29T08:41:15;4.10;;;3.70;;
22080;SDS011;11207;59.512;18.050;2023-12-29T08:43:40;3.90;;;3.60;;
22080;SDS011;11207;59.512;18.050;2023-12-29T08:46:06;4.93;;;4.20;;
22080;SDS011;11207;59.512;18.050;2023-12-29T08:48:32;4.90;;;4.40;;
22080;SDS011;11207;59.512;18.050;2023-12-29T08:50:57;4.13;;;3.73;;
22080;SDS011;11207;59.512;18.050;2023-12-29T08:53:23;4.40;;;3.97;;
22080;SDS011;11207;59.512;18.050;2023-12-29T08:55:48;3.60;;;3.30;;
22080;SDS011;11207;59.512;18.050;2023-12-29T08:58:14;3.17;;;2.97;;
22080;SDS011;11207;59.512;18.050;2023-12-29T09:00:40;3.20;;;3.00;;
22080;SDS011;11207;59.512;18.050;2023-12-29T09:03:05;3.70;;;3.40;;
22080;SDS011;11207;59.512;18.050;2023-12-29T09:05:31;3.37;;;3.13;;
22080;SDS011;11207;59.512;18.050;2023-12-29T09:07:56;4.20;;;3.53;;
22080;SDS011;11207;59.512;18.050;2023-12-29T09:10:22;3.43;;;2.97;;
22080;SDS011;11207;59.512;18.050;2023-12-29T09:12:48;3.57;;;3.27;;
22080;SDS011;11207;59.512;18.050;2023-12-29T09:15:14;3.37;;;3.10;;
22080;SDS011;11207;59.512;18.050;2023-12-29T09:17:43;4.80;;;3.47;;
22080;SDS011;11207;59.512;18.050;2023-12-29T09:20:11;3.60;;;3.30;;
22080;SDS011;11207;59.512;18.050;2023-12-29T09:22:36;4.27;;;3.83;;
22080;SDS011;11207;59.512;18.050;2023-12-29T09:25:03;3.63;;;3.33;;
22080;SDS011;11207;59.512;18.050;2023-12-29T09:27:29;4.50;;;3.70;;
22080;SDS011;11207;59.512;18.050;2023-12-29T09:29:55;3.50;;;3.20;;
22080;SDS011;11207;59.512;18.050;2023-12-29T09:32:20;4.30;;;3.60;;
22080;SDS011;11207;59.512;18.050;2023-12-29T09:34:46;5.33;;;3.90;;
22080;SDS011;11207;59.512;18.050;2023-12-29T09:37:11;5.47;;;4.50;;
22080;SDS011;11207;59.512;18.050;2023-12-29T09:39:37;7.17;;;4.50;;
22080;SDS011;11207;59.512;18.050;2023-12-29T09:42:03;5.17;;;4.10;;
22080;SDS011;11207;59.512;18.050;2023-12-29T09:44:30;5.47;;;4.10;;
22080;SDS011;11207;59.512;18.050;2023-12-29T09:46:57;6.53;;;3.40;;
22080;SDS011;11207;59.512;18.050;2023-12-29T09:49:37;6.17;;;3.20;;
22080;SDS011;11207;59.512;18.050;2023-12-29T09:52:06;3.93;;;3.00;;
22080;SDS011;11207;59.512;18.050;2023-12-29T09:54:34;3.23;;;2.80;;
22080;SDS011;11207;59.512;18.050;2023-12-29T09:57:02;3.70;;;2.90;;
22080;SDS011;11207;59.512;18.050;2023-12-29T09:59:29;2.87;;;2.67;;
22080;SDS011;11207;59.512;18.050;2023-12-29T10:01:55;4.33;;;2.67;;
22080;SDS011;11207;59.512;18.050;2023-12-29T10:04:21;3.20;;;2.90;;
22080;SDS011;11207;59.512;18.050;2023-12-29T10:06:46;2.83;;;2.63;;
22080;SDS011;11207;59.512;18.050;2023-12-29T10:09:15;3.17;;;2.67;;
22080;SDS011;11207;59.512;18.050;2023-12-29T10:11:43;3.07;;;2.70;;
22080;SDS011;11207;59.512;18.050;2023-12-29T10:14:26;4.23;;;2.70;;
22080;SDS011;11207;59.512;18.050;2023-12-29T10:17:03;2.77;;;2.57;;
22080;SDS011;11207;59.512;18.050;2023-12-29T10:19:41;2.47;;;2.27;;
22080;SDS011;11207;59.512;18.050;2023-12-29T10:24:48;2.90;;;2.60;;
22080;SDS011;11207;59.512;18.050;2023-12-29T10:27:15;2.83;;;2.50;;
22080;SDS011;11207;59.512;18.050;2023-12-29T10:29:41;3.97;;;2.80;;
22080;SDS011;11207;59.512;18.050;2023-12-29T10:32:07;5.00;;;2.50;;
22080;SDS011;11207;59.512;18.050;2023-12-29T10:34:34;2.67;;;2.47;;
22080;SDS011;11207;59.512;18.050;2023-12-29T10:37:00;2.97;;;2.67;;
22080;SDS011;11207;59.512;18.050;2023-12-29T10:39:28;3.27;;;2.63;;
22080;SDS011;11207;59.512;18.050;2023-12-29T10:42:04;2.60;;;2.40;;
22080;SDS011;11207;59.512;18.050;2023-12-29T10:44:31;6.17;;;2.40;;
22080;SDS011;11207;59.512;18.050;2023-12-29T10:46:58;2.70;;;2.50;;
22080;SDS011;11207;59.512;18.050;2023-12-29T10:49:23;2.80;;;2.40;;
22080;SDS011;11207;59.512;18.050;2023-12-29T10:51:49;2.63;;;2.40;;
22080;SDS011;11207;59.512;18.050;2023-12-29T10:54:21;2.70;;;2.50;;
22080;SDS011;11207;59.512;18.050;2023-12-29T10:56:59;6.23;;;2.60;;
22080;SDS011;11207;59.512;18.050;2023-12-29T10:59:27;2.47;;;2.27;;
22080;SDS011;11207;59.512;18.050;2023-12-29T11:01:53;3.97;;;2.70;;
22080;SDS011;11207;59.512;18.050;2023-12-29T11:04:21;2.77;;;2.40;;
22080;SDS011;11207;59.512;18.050;2023-12-29T11:06:47;2.60;;;2.40;;
22080;SDS011;11207;59.512;18.050;2023-12-29T11:09:28;4.60;;;2.70;;
22080;SDS011;11207;59.512;18.050;2023-12-29T11:11:59;3.97;;;2.80;;
22080;SDS011;11207;59.512;18.050;2023-12-29T11:14:29;2.60;;;2.40;;
22080;SDS011;11207;59.512;18.050;2023-12-29T11:16:55;3.80;;;2.73;;
22080;SDS011;11207;59.512;18.050;2023-12-29T11:19:21;3.63;;;2.53;;
22080;SDS011;11207;59.512;18.050;2023-12-29T11:21:57;2.80;;;2.50;;
22080;SDS011;11207;59.512;18.050;2023-12-29T11:24:23;3.00;;;2.80;;
22080;SDS011;11207;59.512;18.050;2023-12-29T11:26:49;3.23;;;2.40;;
22080;SDS011;11207;59.512;18.050;2023-12-29T11:29:15;2.93;;;2.73;;
22080;SDS011;11207;59.512;18.050;2023-12-29T11:31:41;4.57;;;2.70;;
22080;SDS011;11207;59.512;18.050;2023-12-29T11:34:57;2.63;;;2.43;;
22080;SDS011;11207;59.512;18.050;2023-12-29T11:37:18;2.73;;;2.53;;
22080;SDS011;11207;59.512;18.050;2023-12-29T11:39:57;2.97;;;2.67;;
22080;SDS011;11207;59.512;18.050;2023-12-29T11:42:35;4.20;;;2.97;;
22080;SDS011;11207;59.512;18.050;2023-12-29T11:47:53;3.37;;;3.07;;
22080;SDS011;11207;59.512;18.050;2023-12-29T11:50:30;3.60;;;2.93;;
22080;SDS011;11207;59.512;18.050;2023-12-29T11:53:01;5.90;;;2.90;;
22080;SDS011;11207;59.512;18.050;2023-12-29T11:55:28;3.57;;;2.70;;
22080;SDS011;11207;59.512;18.050;2023-12-29T11:58:23;5.03;;;2.77;;
22080;SDS011;11207;59.512;18.050;2023-12-29T12:00:50;4.80;;;3.10;;
22080;SDS011;11207;59.512;18.050;2023-12-29T12:05:44;3.93;;;3.10;;
22080;SDS011;11207;59.512;18.050;2023-12-29T12:08:27;3.30;;;3.10;;
22080;SDS011;11207;59.512;18.050;2023-12-29T12:10:55;3.40;;;3.10;;
22080;SDS011;11207;59.512;18.050;2023-12-29T12:13:43;4.00;;;3.40;;
22080;SDS011;11207;59.512;18.050;2023-12-29T12:16:46;4.83;;;3.10;;
22080;SDS011;11207;59.512;18.050;2023-12-29T12:19:11;4.40;;;2.90;;
22080;SDS011;11207;59.512;18.050;2023-12-29T12:21:37;4.83;;;3.00;;
22080;SDS011;11207;59.512;18.050;2023-12-29T12:24:04;3.77;;;3.20;;
22080;SDS011;11207;59.512;18.050;2023-12-29T12:26:31;5.53;;;3.40;;
22080;SDS011;11207;59.512;18.050;2023-12-29T12:29:00;4.17;;;3.43;;
22080;SDS011;11207;59.512;18.050;2023-12-29T12:31:26;4.70;;;3.33;;
22080;SDS011;11207;59.512;18.050;2023-12-29T12:33:55;4.07;;;3.10;;
22080;SDS011;11207;59.512;18.050;2023-12-29T12:36:24;4.67;;;3.67;;
22080;SDS011;11207;59.512;18.050;2023-12-29T12:38:55;6.30;;;4.60;;
22080;SDS011;11207;59.512;18.050;2023-12-29T12:41:22;10.20;;;4.50;;
22080;SDS011;11207;59.512;18.050;2023-12-29T12:46:34;4.37;;;3.60;;
22080;SDS011;11207;59.512;18.050;2023-12-29T12:49:04;3.87;;;3.57;;
22080;SDS011;11207;59.512;18.050;2023-12-29T12:51:30;3.83;;;3.50;;
22080;SDS011;11207;59.512;18.050;2023-12-29T12:53:58;3.83;;;3.53;;
22080;SDS011;11207;59.512;18.050;2023-12-29T12:56:24;5.70;;;3.77;;
22080;SDS011;11207;59.512;18.050;2023-12-29T12:58:54;3.53;;;3.23;;
22080;SDS011;11207;59.512;18.050;2023-12-29T13:01:21;3.77;;;3.40;;
22080;SDS011;11207;59.512;18.050;2023-12-29T13:03:47;3.77;;;3.20;;
22080;SDS011;11207;59.512;18.050;2023-12-29T13:06:13;3.43;;;3.13;;
22080;SDS011;11207;59.512;18.050;2023-12-29T13:08:39;3.30;;;3.10;;
22080;SDS011;11207;59.512;18.050;2023-12-29T13:11:07;3.20;;;2.97;;
22080;SDS011;11207;59.512;18.050;2023-12-29T13:13:39;3.30;;;3.00;;
22080;SDS011;11207;59.512;18.050;2023-12-29T13:16:07;3.40;;;3.10;;
22080;SDS011;11207;59.512;18.050;2023-12-29T13:18:33;3.83;;;3.50;;
22080;SDS011;11207;59.512;18.050;2023-12-29T13:21:01;3.63;;;3.33;;
22080;SDS011;11207;59.512;18.050;2023-12-29T13:23:29;3.70;;;3.40;;
22080;SDS011;11207;59.512;18.050;2023-12-29T13:25:55;3.67;;;3.07;;
22080;SDS011;11207;59.512;18.050;2023-12-29T13:28:24;3.73;;;3.43;;
22080;SDS011;11207;59.512;18.050;2023-12-29T13:30:51;3.93;;;3.63;;
22080;SDS011;11207;59.512;18.050;2023-12-29T13:39:21;5.13;;;4.27;;
22080;SDS011;11207;59.512;18.050;2023-12-29T13:41:52;3.77;;;3.47;;
22080;SDS011;11207;59.512;18.050;2023-12-29T13:44:18;5.63;;;4.30;;
22080;SDS011;11207;59.512;18.050;2023-12-29T13:46:46;8.13;;;4.73;;
22080;SDS011;11207;59.512;18.050;2023-12-29T13:49:13;4.93;;;4.43;;
22080;SDS011;11207;59.512;18.050;2023-12-29T13:51:40;5.60;;;4.57;;
22080;SDS011;11207;59.512;18.050;2023-12-29T13:54:07;7.17;;;5.30;;
22080;SDS011;11207;59.512;18.050;2023-12-29T13:56:33;7.73;;;6.43;;
22080;SDS011;11207;59.512;18.050;2023-12-29T13:58:59;6.63;;;5.67;;
22080;SDS011;11207;59.512;18.050;2023-12-29T14:01:34;7.23;;;5.87;;
22080;SDS011;11207;59.512;18.050;2023-12-29T14:04:03;10.38;;;7.90;;
22080;SDS011;11207;59.512;18.050;2023-12-29T14:06:47;10.20;;;7.80;;
22080;SDS011;11207;59.512;18.050;2023-12-29T14:09:15;8.80;;;6.70;;
22080;SDS011;11207;59.512;18.050;2023-12-29T14:11:48;15.43;;;9.40;;
22080;SDS011;11207;59.512;18.050;2023-12-29T14:14:14;12.60;;;8.43;;
22080;SDS011;11207;59.512;18.050;2023-12-29T14:16:47;16.43;;;10.20;;
22080;SDS011;11207;59.512;18.050;2023-12-29T14:19:13;19.60;;;11.43;;
22080;SDS011;11207;59.512;18.050;2023-12-29T14:21:38;21.10;;;11.73;;
22080;SDS011;11207;59.512;18.050;2023-12-29T14:29:17;12.57;;;8.80;;
22080;SDS011;11207;59.512;18.050;2023-12-29T14:31:43;10.97;;;7.33;;
22080;SDS011;11207;59.512;18.050;2023-12-29T14:34:10;11.20;;;7.07;;
22080;SDS011;11207;59.512;18.050;2023-12-29T14:36:38;9.55;;;7.50;;
22080;SDS011;11207;59.512;18.050;2023-12-29T14:39:05;9.33;;;6.90;;
22080;SDS011;11207;59.512;18.050;2023-12-29T14:41:31;8.48;;;6.85;;
22080;SDS011;11207;59.512;18.050;2023-12-29T14:43:57;9.17;;;6.83;;
22080;SDS011;11207;59.512;18.050;2023-12-29T14:46:23;8.83;;;6.87;;
22080;SDS011;11207;59.512;18.050;2023-12-29T14:48:49;11.67;;;7.20;;
22080;SDS011;11207;59.512;18.050;2023-12-29T14:51:15;10.40;;;6.57;;
22080;SDS011;11207;59.512;18.050;2023-12-29T14:53:44;9.63;;;6.23;;
22080;SDS011;11207;59.512;18.050;2023-12-29T14:56:11;10.33;;;6.43;;
22080;SDS011;11207;59.512;18.050;2023-12-29T14:58:38;10.77;;;7.10;;
22080;SDS011;11207;59.512;18.050;2023-12-29T15:01:04;9.13;;;6.37;;